Time;durP1;ratioP1;P1;durP2;ratioP2;P2;SDS_P1;SDS_P2;PMS_P1;PMS_P2;Temp;Humidity;BMP_temperature;BMP_pressure;BME280_temperature;BME280_humidity;BME280_pressure;Samples;Min_cycle;Max_cycle;Signal;HPM_P1;HPM_P2
2022/07/09 00:02:11;;;;;;;0.70;0.70;;;;;15.10;99450.00;;;;5116890;28;20536;-77
2022/07/09 00:04:37;;;;;;;0.80;0.80;;;;;15.00;99450.00;;;;5098995;28;20281;-77
2022/07/09 00:07:05;;;;;;;0.83;0.83;;;;;15.00;99450.00;;;;5116900;28;20613;-78
2022/07/09 00:09:31;;;;;;;0.70;0.70;;;;;15.00;99441.00;;;;5098770;28;20536;-78
2022/07/09 00:11:58;;;;;;;2.13;1.20;;;;;15.00;99451.00;;;;5116494;28;20256;-78
2022/07/09 00:14:25;;;;;;;0.70;0.70;;;;;15.00;99448.00;;;;5116713;28;20802;-77
2022/07/09 00:16:52;;;;;;;0.83;0.83;;;;;14.90;99445.00;;;;5116737;28;20198;-78
2022/07/09 00:19:19;;;;;;;0.90;0.90;;;;;15.00;99443.00;;;;5098575;28;20645;-77
2022/07/09 00:21:48;;;;;;;3.10;1.27;;;;;14.90;99445.00;;;;5098520;28;20637;-77
2022/07/09 00:24:15;;;;;;;0.77;0.77;;;;;14.90;99444.00;;;;5116483;28;20190;-78
2022/07/09 00:26:42;;;;;;;0.70;0.70;;;;;14.80;99433.00;;;;5116322;28;20293;-76
2022/07/09 00:29:09;;;;;;;0.80;0.80;;;;;15.00;99431.00;;;;5116391;28;20186;-77
2022/07/09 00:31:35;;;;;;;1.13;1.13;;;;;15.00;99435.00;;;;5116256;28;20248;-77
2022/07/09 00:34:02;;;;;;;0.60;0.60;;;;;14.80;99429.00;;;;5098307;28;20194;-77
2022/07/09 00:36:32;;;;;;;1.10;1.10;;;;;14.90;99434.00;;;;5116258;28;20190;-77
2022/07/09 00:38:59;;;;;;;1.43;1.27;;;;;14.80;99432.00;;;;5116333;28;20218;-78
2022/07/09 00:41:25;;;;;;;0.93;0.93;;;;;14.80;99425.00;;;;5116137;28;20262;-77
2022/07/09 00:43:52;;;;;;;0.60;0.60;;;;;14.90;99418.00;;;;5116191;28;20213;-77
2022/07/09 00:46:19;;;;;;;0.83;0.83;;;;;14.70;99425.00;;;;5116072;28;20220;-77
2022/07/09 00:48:48;;;;;;;0.70;0.70;;;;;14.70;99424.00;;;;5116092;28;20579;-77
2022/07/09 00:51:17;;;;;;;1.00;1.00;;;;;14.80;99425.00;;;;5098033;28;20221;-77
2022/07/09 00:53:45;;;;;;;0.60;0.60;;;;;14.80;99417.00;;;;5116314;28;20201;-77
2022/07/09 00:56:12;;;;;;;1.20;1.20;;;;;14.70;99403.00;;;;5115936;28;20201;-77
2022/07/09 00:58:42;;;;;;;0.63;0.63;;;;;14.60;99406.00;;;;5115827;28;20256;-77
2022/07/09 01:01:08;;;;;;;0.93;0.93;;;;;14.70;99407.00;;;;5115821;28;20198;-77
2022/07/09 01:03:35;;;;;;;0.70;0.70;;;;;14.70;99404.00;;;;5115191;28;20629;-77
2022/07/09 01:06:02;;;;;;;0.87;0.87;;;;;14.60;99402.00;;;;5097746;28;20283;-77
2022/07/09 01:08:32;;;;;;;0.70;0.70;;;;;14.50;99401.00;;;;5115604;28;20205;-78
2022/07/09 01:11:00;;;;;;;0.90;0.90;;;;;14.50;99398.00;;;;5115546;28;20225;-78
2022/07/09 01:13:27;;;;;;;0.80;0.80;;;;;14.50;99398.00;;;;5097925;28;20549;-77
2022/07/09 01:15:54;;;;;;;1.53;1.20;;;;;14.50;99399.00;;;;5115847;28;20202;-77
2022/07/09 01:18:21;;;;;;;0.70;0.70;;;;;14.50;99395.00;;;;5115706;28;20201;-76
2022/07/09 01:20:48;;;;;;;0.53;0.53;;;;;14.50;99393.00;;;;5115586;28;20208;-77
2022/07/09 01:23:15;;;;;;;0.80;0.80;;;;;14.40;99389.00;;;;5115493;28;20280;-77
2022/07/09 01:25:43;;;;;;;0.63;0.63;;;;;14.30;99395.00;;;;5115494;28;20245;-77
2022/07/09 01:28:11;;;;;;;0.90;0.90;;;;;14.20;99389.00;;;;5115423;28;20202;-77
2022/07/09 01:30:40;;;;;;;0.70;0.70;;;;;14.20;99388.00;;;;5115350;28;20220;-77
2022/07/09 01:33:08;;;;;;;0.50;0.50;;;;;14.10;99379.00;;;;5116684;28;20655;-77
2022/07/09 01:35:34;;;;;;;0.60;0.60;;;;;14.20;99385.00;;;;5115261;28;20238;-77
2022/07/09 01:38:02;;;;;;;0.77;0.77;;;;;14.20;99375.00;;;;5115470;28;20190;-77
2022/07/09 01:40:29;;;;;;;0.60;0.60;;;;;14.20;99369.00;;;;5115506;28;20669;-77
2022/07/09 01:42:55;;;;;;;0.77;0.77;;;;;14.10;99374.00;;;;5115277;28;20197;-77
2022/07/09 01:45:25;;;;;;;1.00;1.00;;;;;13.90;99370.00;;;;5115022;28;20602;-77
2022/07/09 01:47:52;;;;;;;1.03;1.03;;;;;14.00;99362.00;;;;5115203;28;20224;-75
2022/07/09 01:50:18;;;;;;;0.70;0.70;;;;;14.00;99367.00;;;;5115752;28;20193;-77
2022/07/09 01:52:48;;;;;;;0.70;0.70;;;;;14.00;99369.00;;;;5114949;28;20305;-77
2022/07/09 01:55:16;;;;;;;0.60;0.60;;;;;13.90;99365.00;;;;5115014;28;20280;-77
2022/07/09 01:57:42;;;;;;;0.70;0.70;;;;;13.90;99361.00;;;;5114975;28;20535;-77
2022/07/09 02:00:10;;;;;;;0.60;0.60;;;;;14.00;99361.00;;;;5114945;28;20186;-77
2022/07/09 02:02:37;;;;;;;0.90;0.90;;;;;13.90;99363.00;;;;5114738;28;20198;-76
2022/07/09 02:05:05;;;;;;;0.70;0.70;;;;;13.90;99359.00;;;;5114842;28;20649;-77
2022/07/09 02:07:32;;;;;;;2.30;1.20;;;;;13.80;99349.00;;;;5114801;28;20232;-75
2022/07/09 02:09:59;;;;;;;0.70;0.70;;;;;13.60;99360.00;;;;5114958;28;20193;-76
2022/07/09 02:12:27;;;;;;;1.63;1.53;;;;;13.50;99354.00;;;;5114724;28;20218;-77
2022/07/09 02:14:54;;;;;;;5.60;1.90;;;;;13.50;99358.00;;;;5113621;28;20218;-77
2022/07/09 02:17:21;;;;;;;0.63;0.63;;;;;13.60;99354.00;;;;5114620;28;20243;-77
2022/07/09 02:19:48;;;;;;;1.13;1.13;;;;;13.70;99353.00;;;;5114611;28;20232;-77
2022/07/09 02:22:15;;;;;;;0.77;0.77;;;;;13.60;99348.00;;;;5114668;28;20194;-77
2022/07/09 02:24:44;;;;;;;0.67;0.67;;;;;13.60;99350.00;;;;5114465;28;20225;-77
2022/07/09 02:27:11;;;;;;;1.10;1.10;;;;;13.50;99348.00;;;;5114552;28;20198;-78
2022/07/09 02:29:41;;;;;;;1.10;1.10;;;;;13.40;99345.00;;;;5096558;28;20201;-77
2022/07/09 02:32:10;;;;;;;0.70;0.70;;;;;13.30;99354.00;;;;5096702;28;20229;-77
2022/07/09 02:34:37;;;;;;;0.70;0.70;;;;;13.40;99355.00;;;;5114368;28;20213;-77
2022/07/09 02:37:04;;;;;;;0.90;0.90;;;;;13.50;99354.00;;;;5114360;28;20251;-77
2022/07/09 02:39:31;;;;;;;0.70;0.70;;;;;13.50;99356.00;;;;5114491;28;20232;-77
2022/07/09 02:41:58;;;;;;;0.60;0.60;;;;;13.60;99350.00;;;;5114262;28;20206;-77
2022/07/09 02:44:25;;;;;;;0.70;0.70;;;;;13.60;99349.00;;;;5114317;28;20204;-77
2022/07/09 02:46:55;;;;;;;0.70;0.70;;;;;13.60;99360.00;;;;5114312;28;20205;-77
2022/07/09 02:49:23;;;;;;;0.70;0.70;;;;;13.50;99357.00;;;;5114435;28;20560;-77
2022/07/09 02:51:54;;;;;;;0.60;0.60;;;;;13.50;99351.00;;;;5113999;28;20222;-77
2022/07/09 02:54:21;;;;;;;0.80;0.80;;;;;13.50;99349.00;;;;5114102;28;20209;-77
2022/07/09 02:56:48;;;;;;;0.63;0.63;;;;;13.40;99354.00;;;;5114016;28;20183;-77
2022/07/09 02:59:17;;;;;;;1.10;1.10;;;;;13.50;99356.00;;;;5096426;28;20237;-77
2022/07/09 03:01:44;;;;;;;1.17;1.17;;;;;13.40;99349.00;;;;5096315;28;20194;-77
2022/07/09 03:04:11;;;;;;;0.70;0.70;;;;;13.50;99345.00;;;;5096178;28;20197;-77
2022/07/09 03:06:38;;;;;;;1.33;1.23;;;;;13.40;99347.00;;;;5096016;28;20514;-77
2022/07/09 03:09:06;;;;;;;0.93;0.93;;;;;13.30;99350.00;;;;5113905;28;20511;-77
2022/07/09 03:11:33;;;;;;;0.60;0.60;;;;;13.40;99354.00;;;;5113889;28;20236;-77
2022/07/09 03:14:00;;;;;;;0.67;0.67;;;;;13.30;99348.00;;;;5096079;28;20202;-77
2022/07/09 03:16:27;;;;;;;0.60;0.60;;;;;13.30;99350.00;;;;5114109;28;20678;-77
2022/07/09 03:18:54;;;;;;;0.70;0.70;;;;;13.40;99348.00;;;;5113855;28;20214;-78
2022/07/09 03:21:21;;;;;;;0.60;0.60;;;;;13.30;99356.00;;;;5113750;28;20206;-77
2022/07/09 03:23:48;;;;;;;0.70;0.70;;;;;13.30;99359.00;;;;5113767;28;20209;-77
2022/07/09 03:26:15;;;;;;;0.60;0.60;;;;;13.50;99362.00;;;;5116159;28;20745;-77
2022/07/09 03:28:41;;;;;;;0.50;0.50;;;;;13.30;99356.00;;;;5099709;28;20202;-77
2022/07/09 03:31:08;;;;;;;0.93;0.93;;;;;13.20;99365.00;;;;5117458;28;20232;-78
2022/07/09 03:33:37;;;;;;;1.10;1.10;;;;;13.30;99366.00;;;;5117599;28;20206;-80
2022/07/09 03:36:04;;;;;;;0.80;0.80;;;;;13.30;99364.00;;;;5117700;28;20193;-78
2022/07/09 03:38:33;;;;;;;0.80;0.80;;;;;13.20;99363.00;;;;5117419;28;20278;-77
2022/07/09 03:41:00;;;;;;;1.10;1.10;;;;;13.20;99357.00;;;;5117681;28;20194;-77
2022/07/09 03:43:27;;;;;;;0.70;0.70;;;;;13.20;99364.00;;;;5117790;28;20201;-79
2022/07/09 03:45:54;;;;;;;1.03;1.03;;;;;13.20;99361.00;;;;5117552;28;20672;-78
2022/07/09 03:48:21;;;;;;;1.00;1.00;;;;;13.20;99359.00;;;;5117218;28;20292;-78
2022/07/09 03:50:48;;;;;;;3.40;1.27;;;;;13.30;99360.00;;;;5117070;28;20214;-78
2022/07/09 03:53:14;;;;;;;1.37;1.00;;;;;13.20;99359.00;;;;5117151;28;20201;-77
2022/07/09 03:55:42;;;;;;;0.70;0.70;;;;;13.20;99360.00;;;;5117479;28;20195;-78
2022/07/09 03:58:09;;;;;;;0.80;0.80;;;;;13.10;99355.00;;;;5116853;28;20221;-77
2022/07/09 04:00:35;;;;;;;0.70;0.70;;;;;13.10;99368.00;;;;5099176;28;20210;-77
2022/07/09 04:03:02;;;;;;;0.50;0.50;;;;;13.10;99359.00;;;;5116768;28;20182;-77
2022/07/09 04:05:29;;;;;;;1.40;1.40;;;;;13.10;99365.00;;;;5116757;28;20221;-77
2022/07/09 04:07:57;;;;;;;0.60;0.60;;;;;13.20;99359.00;;;;5116755;28;20202;-77
2022/07/09 04:10:24;;;;;;;0.67;0.67;;;;;13.30;99369.00;;;;5116923;28;20217;-77
2022/07/09 04:12:51;;;;;;;0.73;0.73;;;;;13.30;99368.00;;;;5116604;28;20222;-78
2022/07/09 04:15:18;;;;;;;1.00;1.00;;;;;13.40;99370.00;;;;5098839;28;20194;-78
2022/07/09 04:17:47;;;;;;;2.00;1.13;;;;;13.40;99365.00;;;;5116419;28;20221;-77
2022/07/09 04:20:14;;;;;;;0.60;0.60;;;;;13.50;99369.00;;;;5116821;28;20266;-76
2022/07/09 04:22:40;;;;;;;1.23;1.23;;;;;13.50;99366.00;;;;5116496;28;20204;-77
2022/07/09 04:25:08;;;;;;;1.03;1.00;;;;;13.40;99368.00;;;;5116525;28;20283;-78
2022/07/09 04:27:35;;;;;;;1.00;1.00;;;;;13.40;99375.00;;;;5116543;28;20266;-78
2022/07/09 04:30:04;;;;;;;0.50;0.50;;;;;13.40;99377.00;;;;5116318;28;20208;-76
2022/07/09 04:32:30;;;;;;;0.93;0.93;;;;;13.40;99375.00;;;;5116242;28;20237;-77
2022/07/09 04:34:57;;;;;;;0.70;0.70;;;;;13.40;99372.00;;;;5116439;28;20190;-77
2022/07/09 04:37:26;;;;;;;0.90;0.90;;;;;13.50;99373.00;;;;5115275;28;20294;-77
2022/07/09 04:39:53;;;;;;;0.77;0.77;;;;;13.50;99372.00;;;;5116218;28;20190;-77
2022/07/09 04:42:22;;;;;;;0.70;0.70;;;;;13.40;99376.00;;;;5116091;28;20194;-77
2022/07/09 04:44:48;;;;;;;2.73;1.33;;;;;13.40;99374.00;;;;5116016;28;20214;-77
2022/07/09 04:47:16;;;;;;;0.90;0.90;;;;;13.40;99375.00;;;;5116225;28;20190;-77
2022/07/09 04:49:43;;;;;;;1.03;1.03;;;;;13.50;99371.00;;;;5116223;28;20194;-77
2022/07/09 04:52:09;;;;;;;0.50;0.50;;;;;13.50;99365.00;;;;5115882;28;20560;-77
2022/07/09 04:54:36;;;;;;;0.70;0.70;;;;;13.50;99365.00;;;;5116095;28;20202;-78
2022/07/09 04:57:03;;;;;;;1.67;1.57;;;;;13.70;99372.00;;;;5097929;28;20525;-78
2022/07/09 04:59:30;;;;;;;0.73;0.73;;;;;13.70;99365.00;;;;5115940;28;20222;-77
2022/07/09 05:01:57;;;;;;;1.00;1.00;;;;;13.80;99369.00;;;;5098111;28;20205;-78
2022/07/09 05:04:24;;;;;;;0.80;0.80;;;;;13.70;99373.00;;;;5115843;28;20779;-77
2022/07/09 05:06:53;;;;;;;0.77;0.77;;;;;13.90;99368.00;;;;5115851;28;20205;-78
2022/07/09 05:09:20;;;;;;;0.70;0.70;;;;;13.90;99372.00;;;;5115971;28;20200;-77
2022/07/09 05:11:47;;;;;;;5.70;1.20;;;;;14.00;99376.00;;;;5115449;28;20593;-78
2022/07/09 05:14:14;;;;;;;0.67;0.67;;;;;14.00;99367.00;;;;5115736;28;20190;-77
2022/07/09 05:16:44;;;;;;;0.63;0.63;;;;;14.00;99365.00;;;;5115792;28;20210;-75
2022/07/09 05:19:11;;;;;;;1.33;1.07;;;;;14.10;99358.00;;;;5115712;28;20213;-77
2022/07/09 05:21:42;;;;;;;0.90;0.90;;;;;14.20;99354.00;;;;5115612;28;20193;-77
2022/07/09 05:24:09;;;;;;;0.97;0.97;;;;;14.20;99361.00;;;;5097622;28;20194;-77
2022/07/09 05:26:36;;;;;;;0.77;0.77;;;;;14.20;99365.00;;;;5115611;28;20274;-77
2022/07/09 05:29:03;;;;;;;1.00;1.00;;;;;14.30;99356.00;;;;5115506;28;20194;-78
2022/07/09 05:31:33;;;;;;;1.17;1.17;;;;;14.30;99362.00;;;;5115135;28;20240;-77
2022/07/09 05:34:00;;;;;;;0.60;0.60;;;;;14.40;99357.00;;;;5115344;28;20251;-77
2022/07/09 05:36:28;;;;;;;0.73;0.73;;;;;14.50;99353.00;;;;5115205;28;20202;-77
2022/07/09 05:38:56;;;;;;;1.07;0.97;;;;;14.50;99367.00;;;;5115276;28;20218;-78
2022/07/09 05:41:24;;;;;;;1.00;1.00;;;;;14.70;99363.00;;;;5115499;28;20240;-77
2022/07/09 05:43:53;;;;;;;0.83;0.83;;;;;14.70;99363.00;;;;5115254;28;20189;-78
2022/07/09 05:46:22;;;;;;;0.93;0.93;;;;;14.80;99373.00;;;;5115135;28;20194;-78
2022/07/09 05:48:49;;;;;;;0.80;0.80;;;;;15.00;99379.00;;;;5114964;28;20205;-78
2022/07/09 05:51:16;;;;;;;1.03;1.03;;;;;15.00;99374.00;;;;5115056;28;20230;-77
2022/07/09 05:53:43;;;;;;;0.70;0.70;;;;;15.10;99380.00;;;;5097184;28;20280;-78
2022/07/09 05:56:13;;;;;;;0.90;0.90;;;;;15.20;99376.00;;;;5115114;28;20193;-76
2022/07/09 05:58:40;;;;;;;1.00;1.00;;;;;15.30;99374.00;;;;5114960;28;20221;-77
2022/07/09 06:01:07;;;;;;;0.70;0.70;;;;;15.40;99365.00;;;;5114815;28;20213;-77
2022/07/09 06:03:34;;;;;;;0.70;0.70;;;;;15.50;99373.00;;;;5114768;28;20254;-77
2022/07/09 06:06:03;;;;;;;1.20;1.10;;;;;15.60;99370.00;;;;5115215;28;20212;-78
2022/07/09 06:08:31;;;;;;;2.67;0.90;;;;;15.70;99374.00;;;;5114955;28;20270;-78
2022/07/09 06:10:59;;;;;;;0.80;0.80;;;;;15.80;99366.00;;;;5114868;28;20238;-77
2022/07/09 06:13:27;;;;;;;0.67;0.67;;;;;15.90;99359.00;;;;5114804;28;20217;-78
2022/07/09 06:15:54;;;;;;;0.60;0.60;;;;;16.10;99364.00;;;;5114709;28;20266;-77
2022/07/09 06:18:21;;;;;;;0.60;0.60;;;;;16.20;99369.00;;;;5114600;28;20218;-78
2022/07/09 06:20:48;;;;;;;1.00;1.00;;;;;16.40;99363.00;;;;5114699;28;20213;-78
2022/07/09 06:23:17;;;;;;;0.77;0.77;;;;;16.60;99358.00;;;;5096845;28;20262;-77
2022/07/09 06:25:44;;;;;;;0.73;0.73;;;;;16.60;99363.00;;;;5114547;28;20216;-77
2022/07/09 06:28:13;;;;;;;0.73;0.73;;;;;16.70;99362.00;;;;5114641;28;20523;-78
2022/07/09 06:30:41;;;;;;;0.60;0.60;;;;;16.80;99355.00;;;;5114343;28;20660;-78
2022/07/09 06:33:08;;;;;;;0.80;0.80;;;;;16.90;99353.00;;;;5114483;28;20194;-78
2022/07/09 06:35:34;;;;;;;1.10;1.10;;;;;17.00;99356.00;;;;5114512;28;20239;-75
2022/07/09 06:38:01;;;;;;;0.80;0.80;;;;;17.00;99361.00;;;;5114302;28;20601;-78
2022/07/09 06:40:31;;;;;;;0.80;0.80;;;;;17.10;99354.00;;;;5114313;28;20268;-77
2022/07/09 06:42:57;;;;;;;0.80;0.80;;;;;17.30;99356.00;;;;5114344;28;20350;-78
2022/07/09 06:45:24;;;;;;;0.87;0.87;;;;;17.50;99349.00;;;;5096405;28;20198;-77
2022/07/09 06:47:52;;;;;;;0.80;0.80;;;;;17.60;99349.00;;;;5114219;28;20258;-74
2022/07/09 06:50:19;;;;;;;0.70;0.70;;;;;17.80;99344.00;;;;5114456;28;20205;-78
2022/07/09 06:52:46;;;;;;;0.50;0.50;;;;;17.90;99347.00;;;;5114326;28;20228;-78
2022/07/09 06:55:13;;;;;;;1.40;1.30;;;;;18.00;99350.00;;;;5114388;28;20282;-76
2022/07/09 06:57:42;;;;;;;0.60;0.60;;;;;18.20;99348.00;;;;5114182;28;20531;-77
2022/07/09 07:00:10;;;;;;;0.60;0.60;;;;;18.30;99352.00;;;;5113324;28;20208;-80
2022/07/09 07:02:36;;;;;;;0.57;0.57;;;;;18.20;99345.00;;;;5114082;28;20661;-79
2022/07/09 07:05:05;;;;;;;0.50;0.50;;;;;18.40;99354.00;;;;5114015;28;20200;-81
2022/07/09 07:07:32;;;;;;;1.90;1.73;;;;;18.60;99356.00;;;;5114035;28;20241;-80
2022/07/09 07:09:59;;;;;;;0.80;0.80;;;;;18.70;99357.00;;;;5096436;28;20193;-77
2022/07/09 07:12:25;;;;;;;0.83;0.83;;;;;18.80;99344.00;;;;5113818;28;20688;-77
2022/07/09 07:14:52;;;;;;;0.50;0.50;;;;;18.90;99350.00;;;;5113955;28;20212;-78
2022/07/09 07:17:19;;;;;;;0.60;0.60;;;;;19.00;99350.00;;;;5114023;28;20277;-81
2022/07/09 07:19:48;;;;;;;0.70;0.70;;;;;19.10;99344.00;;;;5113878;28;20189;-79
2022/07/09 07:22:16;;;;;;;0.70;0.70;;;;;19.20;99352.00;;;;5114065;28;20697;-78
2022/07/09 07:24:43;;;;;;;0.50;0.50;;;;;19.20;99348.00;;;;5113723;28;20217;-82
2022/07/09 07:27:10;;;;;;;0.60;0.60;;;;;19.20;99350.00;;;;5113853;28;20190;-81
2022/07/09 07:29:37;;;;;;;0.57;0.57;;;;;19.30;99342.00;;;;5114096;28;20652;-79
2022/07/09 07:32:04;;;;;;;0.57;0.57;;;;;19.30;99348.00;;;;5113749;28;20274;-80
2022/07/09 07:34:33;;;;;;;0.57;0.57;;;;;19.40;99352.00;;;;5113713;28;20209;-78
2022/07/09 07:37:00;;;;;;;0.83;0.83;;;;;19.70;99351.00;;;;5115738;28;20290;-79
2022/07/09 07:39:27;;;;;;;0.50;0.50;;;;;19.60;99353.00;;;;5117633;28;20190;-78
2022/07/09 07:41:54;;;;;;;0.53;0.53;;;;;19.50;99348.00;;;;5096243;28;20226;-79
2022/07/09 07:44:22;;;;;;;0.70;0.70;;;;;19.50;99354.00;;;;5113640;28;20283;-79
2022/07/09 07:46:49;;;;;;;0.53;0.53;;;;;19.60;99354.00;;;;5113501;28;20632;-79
2022/07/09 07:49:17;;;;;;;0.67;0.67;;;;;19.90;99353.00;;;;5113455;28;20212;-80
2022/07/09 07:51:44;;;;;;;0.70;0.70;;;;;20.00;99356.00;;;;5113306;28;20244;-78
2022/07/09 07:54:13;;;;;;;0.70;0.70;;;;;19.90;99346.00;;;;5113319;28;20225;-78
2022/07/09 07:56:41;;;;;;;0.90;0.90;;;;;20.00;99351.00;;;;5113397;28;20194;-77
2022/07/09 07:59:10;;;;;;;0.60;0.60;;;;;20.00;99342.00;;;;5113353;28;20222;-78
2022/07/09 08:01:37;;;;;;;1.47;1.37;;;;;20.00;99335.00;;;;5113409;28;20206;-76
2022/07/09 08:04:04;;;;;;;0.70;0.70;;;;;20.00;99344.00;;;;5113318;28;20258;-76
2022/07/09 08:06:31;;;;;;;0.70;0.70;;;;;20.20;99341.00;;;;5113112;28;20220;-77
2022/07/09 08:08:58;;;;;;;0.70;0.70;;;;;20.20;99340.00;;;;5095331;28;20254;-77
2022/07/09 08:11:25;;;;;;;0.40;0.40;;;;;20.20;99341.00;;;;5112989;28;20282;-76
2022/07/09 08:13:52;;;;;;;0.80;0.80;;;;;20.40;99335.00;;;;5116204;28;20761;-77
2022/07/09 08:16:19;;;;;;;0.70;0.70;;;;;20.40;99336.00;;;;5098543;28;20212;-76
2022/07/09 08:18:46;;;;;;;0.50;0.50;;;;;20.50;99339.00;;;;5116644;28;20221;-76
2022/07/09 08:21:14;;;;;;;0.60;0.60;;;;;20.50;99326.00;;;;5098496;28;20498;-77
2022/07/09 08:23:54;;;;;;;0.50;0.50;;;;;20.60;99331.00;;;;5116449;28;20255;-77
2022/07/09 08:26:22;;;;;;;0.70;0.70;;;;;20.70;99335.00;;;;5116513;28;20193;-78
2022/07/09 08:28:49;;;;;;;0.50;0.50;;;;;20.70;99331.00;;;;5116372;28;20235;-77
2022/07/09 08:31:20;;;;;;;0.80;0.80;;;;;20.80;99335.00;;;;5116453;28;20225;-77
2022/07/09 08:33:50;;;;;;;1.00;1.00;;;;;20.90;99332.00;;;;5116605;28;20216;-77
2022/07/09 08:36:18;;;;;;;0.90;0.90;;;;;20.90;99330.00;;;;5116332;28;20198;-77
2022/07/09 08:38:46;;;;;;;0.50;0.50;;;;;21.00;99335.00;;;;5116337;28;20198;-77
2022/07/09 08:41:15;;;;;;;0.40;0.40;;;;;21.10;99328.00;;;;5116307;28;20351;-77
2022/07/09 08:43:42;;;;;;;1.65;0.60;;;;;21.20;99320.00;;;;5116258;28;20217;-77
2022/07/09 08:46:10;;;;;;;0.38;0.38;;;;;21.20;99319.00;;;;5116383;28;20212;-78
2022/07/09 08:48:37;;;;;;;1.13;1.13;;;;;21.20;99318.00;;;;5116112;28;20316;-78
2022/07/09 08:51:06;;;;;;;0.50;0.50;;;;;21.30;99320.00;;;;5115967;28;20221;-78
2022/07/09 08:53:34;;;;;;;0.50;0.50;;;;;21.50;99318.00;;;;5116067;28;20222;-78
2022/07/09 08:56:03;;;;;;;1.45;1.40;;;;;21.70;99320.00;;;;5116107;28;20194;-78
2022/07/09 08:58:33;;;;;;;0.60;0.60;;;;;21.70;99319.00;;;;5115951;28;20297;-77
2022/07/09 09:01:00;;;;;;;0.50;0.50;;;;;21.60;99320.00;;;;5116036;28;20198;-78
2022/07/09 09:03:29;;;;;;;0.40;0.40;;;;;21.60;99299.00;;;;5115924;28;20213;-76
2022/07/09 09:06:04;;;;;;;0.50;0.50;;;;;21.70;99274.00;;;;5116214;28;20225;-76
2022/07/09 09:08:35;;;;;;;0.50;0.50;;;;;21.90;99309.00;;;;5115959;28;20205;-78
2022/07/09 09:11:02;;;;;;;0.60;0.60;;;;;22.00;99305.00;;;;5115953;28;20198;-81
2022/07/09 09:13:36;;;;;;;0.40;0.40;;;;;21.80;99298.00;;;;5098213;28;20202;-78
2022/07/09 09:16:05;;;;;;;0.82;0.82;;;;;21.90;99288.00;;;;5115897;28;20210;-79
2022/07/09 09:18:32;;;;;;;0.50;0.50;;;;;22.20;99284.00;;;;5115813;28;20237;-78
2022/07/09 09:21:05;;;;;;;0.50;0.50;;;;;22.50;99285.00;;;;5116530;28;20231;-78
2022/07/09 09:23:42;;;;;;;0.60;0.60;;;;;22.80;99276.00;;;;5115425;28;20262;-78
2022/07/09 09:26:13;;;;;;;0.52;0.52;;;;;22.80;99276.00;;;;5116086;28;20629;-78
2022/07/09 09:28:52;;;;;;;0.88;0.88;;;;;22.80;99279.00;;;;5115716;28;20198;-78
2022/07/09 09:31:21;;;;;;;1.00;0.85;;;;;22.90;99270.00;;;;5116633;28;20225;-79
2022/07/09 09:33:51;;;;;;;0.55;0.55;;;;;23.40;99274.00;;;;5116431;28;20193;-78
2022/07/09 09:36:30;;;;;;;0.40;0.40;;;;;23.60;99274.00;;;;5115810;28;20278;-78
2022/07/09 09:39:17;;;;;;;0.70;0.70;;;;;23.60;99274.00;;;;5100115;28;20212;-78
2022/07/09 09:41:45;;;;;;;0.43;0.43;;;;;23.60;99270.00;;;;5119887;28;20648;-80
2022/07/09 09:44:14;;;;;;;0.43;0.43;;;;;23.60;99274.00;;;;5104998;28;20273;-79
2022/07/09 09:46:42;;;;;;;0.52;0.52;;;;;23.70;99274.00;;;;5123950;28;20202;-79
2022/07/09 09:49:10;;;;;;;3.00;1.33;;;;;23.80;99266.00;;;;5120788;28;20214;-79
2022/07/09 09:51:44;;;;;;;1.27;1.15;;;;;24.00;99265.00;;;;5121663;28;20244;-78
2022/07/09 09:54:14;;;;;;;0.85;0.85;;;;;23.60;99276.00;;;;5123628;28;20225;-78
2022/07/09 09:56:42;;;;;;;0.52;0.52;;;;;23.40;99266.00;;;;5123052;28;20198;-78
2022/07/09 09:59:12;;;;;;;0.50;0.50;;;;;23.50;99259.00;;;;5119873;28;20227;-79
2022/07/09 10:01:39;;;;;;;0.40;0.40;;;;;23.40;99261.00;;;;5121156;28;20257;-80
2022/07/09 10:04:07;;;;;;;0.50;0.50;;;;;23.50;99255.00;;;;5120152;28;20213;-80
2022/07/09 10:06:34;;;;;;;1.85;0.88;;;;;23.90;99260.00;;;;5119086;28;20337;-79
2022/07/09 10:09:03;;;;;;;0.50;0.50;;;;;24.10;99253.00;;;;5115511;28;20177;-80
2022/07/09 10:11:39;;;;;;;0.50;0.50;;;;;24.30;99255.00;;;;5115955;28;20217;-80
2022/07/09 10:14:07;;;;;;;0.50;0.50;;;;;24.30;99252.00;;;;5115772;28;20556;-78
2022/07/09 10:16:36;;;;;;;0.47;0.47;;;;;24.60;99256.00;;;;5116160;28;20220;-81
2022/07/09 10:19:02;;;;;;;0.40;0.40;;;;;24.40;99254.00;;;;5116538;28;20217;-77
2022/07/09 10:21:37;;;;;;;0.50;0.50;;;;;24.40;99249.00;;;;5116343;28;20198;-78
2022/07/09 10:24:07;;;;;;;0.38;0.38;;;;;24.80;99244.00;;;;5116246;28;20571;-80
2022/07/09 10:26:39;;;;;;;0.40;0.40;;;;;25.20;99244.00;;;;5118444;28;20605;-77
2022/07/09 10:29:22;;;;;;;0.57;0.57;;;;;25.20;99244.00;;;;5120059;28;20189;-79
2022/07/09 10:31:49;;;;;;;0.43;0.43;;;;;25.30;99249.00;;;;5120352;28;20302;-80
2022/07/09 10:34:43;;;;;;;0.43;0.43;;;;;25.30;99247.00;;;;5119928;28;20217;-79
2022/07/09 10:37:11;;;;;;;0.60;0.60;;;;;25.20;99243.00;;;;5119763;28;20224;-78
2022/07/09 10:39:38;;;;;;;0.60;0.60;;;;;25.60;99232.00;;;;5119993;28;20194;-77
2022/07/09 10:42:06;;;;;;;0.50;0.50;;;;;25.60;99234.00;;;;5118050;28;20578;-79
2022/07/09 10:44:37;;;;;;;0.55;0.55;;;;;25.80;99228.00;;;;5119635;28;20284;-80
2022/07/09 10:47:07;;;;;;;0.70;0.70;;;;;26.30;99240.00;;;;5122914;28;20267;-76
2022/07/09 10:49:35;;;;;;;0.50;0.50;;;;;26.50;99243.00;;;;5121572;28;20304;-79
2022/07/09 10:52:06;;;;;;;0.47;0.47;;;;;26.00;99242.00;;;;5123539;28;20218;-76
2022/07/09 10:54:33;;;;;;;0.60;0.60;;;;;25.80;99239.00;;;;5122218;28;20204;-77
2022/07/09 10:57:01;;;;;;;0.73;0.73;;;;;25.80;99243.00;;;;5121638;28;20190;-80
2022/07/09 10:59:28;;;;;;;0.50;0.50;;;;;25.70;99247.00;;;;5121568;28;20196;-80
2022/07/09 11:01:55;;;;;;;0.55;0.55;;;;;25.30;99241.00;;;;5120121;28;20236;-81
2022/07/09 11:04:29;;;;;;;0.60;0.60;;;;;25.40;99244.00;;;;5115443;28;20255;-80
2022/07/09 11:06:57;;;;;;;0.50;0.50;;;;;26.00;99234.00;;;;5115352;28;20197;-79
2022/07/09 11:09:28;;;;;;;0.90;0.90;;;;;26.10;99252.00;;;;5115135;28;20201;-79
2022/07/09 11:11:57;;;;;;;0.55;0.55;;;;;26.00;99230.00;;;;5097566;28;20210;-80
2022/07/09 11:14:24;;;;;;;0.50;0.50;;;;;26.50;99241.00;;;;5115104;28;20222;-80
2022/07/09 11:16:55;;;;;;;0.40;0.40;;;;;26.90;99235.00;;;;5115234;28;20240;-78
2022/07/09 11:19:22;;;;;;;0.73;0.73;;;;;27.10;99228.00;;;;5115405;28;20258;-80
2022/07/09 11:22:02;;;;;;;0.50;0.50;;;;;27.10;99235.00;;;;5115299;28;20444;-79
2022/07/09 11:24:29;;;;;;;0.60;0.60;;;;;26.90;99231.00;;;;5114668;28;20201;-80
2022/07/09 11:27:01;;;;;;;0.50;0.50;;;;;26.60;99230.00;;;;5114857;28;20201;-80
2022/07/09 11:29:28;;;;;;;0.45;0.45;;;;;26.40;99228.00;;;;5114564;28;20201;-77
2022/07/09 11:31:55;;;;;;;0.60;0.60;;;;;26.30;99230.00;;;;5113682;28;20229;-77
2022/07/09 11:34:22;;;;;;;4.13;1.35;;;;;26.30;99229.00;;;;5113810;28;20210;-77
2022/07/09 11:36:53;;;;;;;0.60;0.60;;;;;26.30;99232.00;;;;5113807;28;20206;-77
2022/07/09 11:39:25;;;;;;;0.95;0.95;;;;;26.30;99224.00;;;;5096124;28;20532;-77
2022/07/09 11:41:52;;;;;;;0.50;0.50;;;;;26.10;99217.00;;;;5113851;28;20220;-77
2022/07/09 11:44:23;;;;;;;0.60;0.60;;;;;26.70;99216.00;;;;5113787;28;20218;-78
2022/07/09 11:47:07;;;;;;;1.15;1.15;;;;;26.80;99222.00;;;;5115436;28;20277;-77
2022/07/09 11:49:38;;;;;;;0.80;0.80;;;;;27.00;99196.00;;;;5099391;28;20281;-76
2022/07/09 11:52:17;;;;;;;0.47;0.47;;;;;27.40;99205.00;;;;5117114;28;20279;-78
2022/07/09 11:54:59;;;;;;;0.60;0.60;;;;;27.20;99207.00;;;;5099089;28;20613;-76
2022/07/09 11:57:26;;;;;;;0.70;0.70;;;;;27.20;99201.00;;;;5116988;28;20240;-77
2022/07/09 11:59:53;;;;;;;0.60;0.60;;;;;27.70;99197.00;;;;5117021;28;20190;-77
2022/07/09 12:02:30;;;;;;;0.60;0.60;;;;;27.50;99204.00;;;;5116842;28;20225;-77
2022/07/09 12:04:57;;;;;;;0.65;0.65;;;;;27.20;99201.00;;;;5116868;28;20201;-78
2022/07/09 12:07:24;;;;;;;0.65;0.65;;;;;27.10;99198.00;;;;5116851;28;20197;-77
2022/07/09 12:10:00;;;;;;;0.70;0.70;;;;;26.70;99196.00;;;;5098836;28;20194;-78
2022/07/09 12:12:29;;;;;;;0.50;0.50;;;;;26.80;99195.00;;;;5116730;28;20229;-78
2022/07/09 12:14:58;;;;;;;0.50;0.50;;;;;26.50;99181.00;;;;5116637;28;20225;-78
2022/07/09 12:17:26;;;;;;;0.70;0.70;;;;;26.70;99157.00;;;;5116568;28;20190;-78
2022/07/09 12:19:54;;;;;;;0.70;0.70;;;;;27.30;99161.00;;;;5116504;28;20194;-79
2022/07/09 12:22:23;;;;;;;0.90;0.90;;;;;28.00;99167.00;;;;5116565;28;20641;-78
2022/07/09 12:24:52;;;;;;;1.25;1.15;;;;;28.00;99166.00;;;;5116659;28;20271;-78